TimeCST,TemperatureF,Dew PointF,Humidity,Sea Level PressureIn,VisibilityMPH,Wind Direction,Wind SpeedMPH,Gust SpeedMPH,PrecipitationIn,Events,Conditions,WindDirDegrees,DateUTC
12:53 AM,8.1,-5.1,55,30.32,10.0,Variable,4.6,-,N/A,,Overcast,0,2013-01-23 06:53:00
1:53 AM,8.1,-5.1,55,30.32,10.0,Variable,3.5,-,N/A,,Overcast,0,2013-01-23 07:53:00
2:53 AM,9.0,-5.1,53,30.32,10.0,Variable,3.5,-,N/A,,Overcast,0,2013-01-23 08:53:00
3:53 AM,9.0,-5.1,53,30.30,10.0,Variable,3.5,-,N/A,,Overcast,0,2013-01-23 09:53:00
4:53 AM,10.0,-2.9,56,30.28,10.0,Variable,4.6,-,N/A,,Overcast,0,2013-01-23 10:53:00
5:53 AM,10.9,-2.0,56,30.27,10.0,SW,3.5,-,N/A,,Overcast,220,2013-01-23 11:53:00
6:53 AM,10.9,1.0,64,30.26,4.0,SW,3.5,-,0.00,Snow,Light Snow,230,2013-01-23 12:53:00
7:01 AM,10.4,1.4,67,30.19,2.0,SW,4.6,-,0.00,Snow,Light Snow,220,2013-01-23 13:01:00
7:53 AM,10.9,5.0,77,30.25,1.5,SW,3.5,-,0.01,Snow,Light Snow,220,2013-01-23 13:53:00
8:53 AM,12.0,6.1,77,30.25,2.0,Calm,Calm,-,0.00,Snow,Light Snow,0,2013-01-23 14:53:00
9:01 AM,12.2,6.8,79,30.18,2.0,Variable,4.6,-,0.00,Snow,Light Snow,0,2013-01-23 15:01:00
9:23 AM,12.2,6.8,79,30.18,5.0,SSW,5.8,-,0.00,Snow,Light Snow,200,2013-01-23 15:23:00
9:53 AM,12.9,7.0,77,30.24,4.0,SSW,8.1,-,0.00,Snow,Light Snow,200,2013-01-23 15:53:00
10:35 AM,14.0,6.8,73,30.17,2.5,SSW,4.6,-,0.00,Snow,Light Snow,200,2013-01-23 16:35:00
10:53 AM,14.0,7.0,74,30.23,2.5,SSW,6.9,-,0.00,Snow,Light Snow,200,2013-01-23 16:53:00
11:29 AM,15.8,8.6,73,30.14,2.5,Variable,3.5,-,0.01,Snow,Light Snow,0,2013-01-23 17:29:00
11:53 AM,16.0,8.1,71,30.18,4.0,WSW,6.9,-,0.01,Snow,Light Snow,240,2013-01-23 17:53:00
12:01 PM,15.8,8.6,73,30.12,5.0,Variable,6.9,-,0.00,Snow,Light Snow,0,2013-01-23 18:01:00
12:08 PM,15.8,8.6,73,30.11,6.0,Variable,5.8,-,0.00,Snow,Light Snow,0,2013-01-23 18:08:00
12:29 PM,15.8,8.6,73,30.10,5.0,SW,5.8,-,0.00,Snow,Light Snow,230,2013-01-23 18:29:00
12:53 PM,17.1,9.0,71,30.13,7.0,Variable,6.9,-,0.00,Snow,Light Snow,0,2013-01-23 18:53:00
1:01 PM,17.6,8.6,68,30.08,8.0,West,9.2,-,0.00,Snow,Light Snow,280,2013-01-23 19:01:00
1:11 PM,17.6,8.6,68,30.08,9.0,WSW,9.2,17.3,0.00,Snow,Light Snow,240,2013-01-23 19:11:00
1:53 PM,18.0,9.0,68,30.12,2.5,Variable,6.9,-,0.00,Snow,Light Snow,0,2013-01-23 19:53:00
2:11 PM,17.6,8.6,68,30.06,2.5,West,9.2,-,0.00,Snow,Light Snow,270,2013-01-23 20:11:00
2:29 PM,17.6,8.6,68,30.06,6.0,West,10.4,-,0.00,Snow,Light Snow,280,2013-01-23 20:29:00
2:53 PM,19.0,10.0,68,30.12,8.0,Variable,6.9,-,0.00,Snow,Light Snow,0,2013-01-23 20:53:00
3:27 PM,19.4,10.4,68,30.08,2.5,Variable,4.6,-,0.00,Snow,Light Snow,0,2013-01-23 21:27:00
3:53 PM,18.0,10.9,74,30.13,2.0,WNW,6.9,-,0.00,Snow,Light Snow,290,2013-01-23 21:53:00
4:23 PM,17.6,10.4,73,30.08,4.0,West,5.8,-,0.00,Snow,Light Snow,280,2013-01-23 22:23:00
4:39 PM,17.6,12.2,79,30.09,2.0,Variable,4.6,-,0.00,Snow,Light Snow,0,2013-01-23 22:39:00
4:53 PM,18.0,12.0,78,30.14,2.0,West,5.8,-,0.00,Snow,Light Snow,280,2013-01-23 22:53:00
4:59 PM,17.6,12.2,79,30.09,1.0,WNW,6.9,-,0.00,Snow,Light Snow,300,2013-01-23 22:59:00
5:14 PM,17.6,14.0,86,30.10,0.8,WNW,10.4,-,0.00,Snow,Light Snow,300,2013-01-23 23:14:00
5:19 PM,17.6,12.2,79,30.10,1.5,WNW,11.5,17.3,0.00,Snow,Light Snow,300,2013-01-23 23:19:00
5:27 PM,17.6,12.2,79,30.11,3.0,NW,15.0,21.9,0.00,Snow,Light Snow,310,2013-01-23 23:27:00
5:53 PM,18.0,8.1,65,30.18,5.0,NNW,15.0,20.7,0.00,Snow,Light Snow,330,2013-01-23 23:53:00
5:56 PM,17.6,8.6,68,30.13,1.0,NNW,16.1,23.0,0.00,Snow,Light Snow,330,2013-01-23 23:56:00
6:53 PM,15.1,5.0,64,30.23,9.0,NNW,13.8,27.6,0.00,,Scattered Clouds,330,2013-01-24 00:53:00
7:03 PM,14.0,5.0,67,30.19,6.0,NNW,13.8,29.9,0.00,Snow,Light Snow,340,2013-01-24 01:03:00
7:17 PM,12.2,1.4,62,30.21,10.0,NNW,19.6,27.6,0.00,,Scattered Clouds,340,2013-01-24 01:17:00
7:53 PM,12.0,1.9,64,30.29,10.0,NNW,16.1,21.9,0.00,,Mostly Cloudy,340,2013-01-24 01:53:00
8:30 PM,10.4,1.4,67,30.26,10.0,NNW,19.6,26.5,N/A,,Mostly Cloudy,340,2013-01-24 02:30:00
8:41 PM,10.4,-0.4,62,30.27,9.0,North,17.3,27.6,N/A,,Mostly Cloudy,350,2013-01-24 02:41:00
8:53 PM,10.9,-0.0,61,30.34,8.0,NNW,15.0,26.5,0.00,Snow,Light Snow,340,2013-01-24 02:53:00
9:08 PM,10.4,-0.4,62,30.30,10.0,NNW,16.1,24.2,0.00,,Partly Cloudy,340,2013-01-24 03:08:00
9:53 PM,8.1,-2.0,64,30.38,10.0,North,17.3,24.2,0.00,,Clear,350,2013-01-24 03:53:00
10:53 PM,6.1,-5.1,60,30.43,10.0,NNW,15.0,19.6,N/A,,Clear,340,2013-01-24 04:53:00
11:53 PM,3.9,-7.1,60,30.47,10.0,NNW,15.0,20.7,N/A,,Clear,340,2013-01-24 05:53:00